Decoded Metar for GMMB (BEN SLIMANE in MOROCCO) (IATA:N/A) | Meteo·Mobile Aviation Weather
aviador You're here:

GMMB Decoded Metar

BEN SLIMANE in MOROCCO
Report Time2018-12-15 00:00:00
UTC Time2018-12-15 00:42:36
Flight Rules unknown UNKNOWN
Wind060° at 07 kt
W.Decomp.*RWY 14: 1.5 kt HW 6.8 kt LCW
W.Rank060° ranks 26
Current wind is above 060° avg. (4.6)
VisibilityN/A
Phenomena:N/A
Clouds:N/A
Expected CloudBase > 800 ft AGL from Temp-Dew spread
CeilingNone
Temp10°C (ISA -4)
Dew Point08°C (88% RH)
AAT7.0°C
QNH1029 hPa
Density Alt-217 ft
Elevation626 ft
Report Wrong Elevation
Raw Report
METAR GMMB 150000Z AUTO 06007KT //// R32/P2000N ////// 10/08 Q1029
NOSIG=

Extra information for GMMB:More info

Metar Taf Metar & Taf Last 4 Metars F.Rules Stats Wind Profile Meteogram Temp Stats Airport Information Weather charts Add Link Nearby VenuesMetar ALERT Operation Metar Decoded Social comments